Main page
METAR-TAF:

METAR-TAF

Airports :

Touho Airport

Touho, New Caledonia

latitude: 20-47-25S, longitude: 165-15-34E, elevation: 3 m

METAR: missing

Time: 02:58 (15:58 UTC)

Forecast

The report was made 22 hours and 58 minutes ago, at 17:00 UTC
Forecast valid from 28 at 18 UTC to 29 at 18 UTC
Wind 8 kt from the East
Visibility 10 km or more
Scattered clouds at a height of 2000 ft
Broken clouds at a height of 3000 ft

TAF: NWWU 281700Z 2818/2918 09008KT 9999 SCT020 BKN030

Weather observations and forecasts of more than 4000 airports (METAR and TAF reports).

The available stations are represented by yellow and red dots on the map.

Hover mouse over dot to see the name of the station.

Then click to see weather observations and forecasts.

To change the map : click on the green buttons with a black cross to zoom in, on the green button with a dash to zoom out, or on the green arrows for adjacent maps.


METAR-TAF: